Artesia ASC Data

Date Time Air Temperature Relative Humidity Dewpoint Windchill Heat Index Wind Speed Wind Dir. Rain Solar Radiation Soil Temperature
2m 2m 3m 3m 10cm
US/Mountain F % F F F MPH deg in MJ/m^2 F
max avg avg
2021-06-11 00:05:00 84.6 51.1 64.5 84.6 86.2 9.7 13.5 11.1 146.7 149.7 0.00 0.0000000 82.8
2021-06-11 00:10:00 84.3 52.3 64.9 84.3 86.0 10.1 11.2 9.7 152.5 149.3 0.00 0.0000000 82.7
2021-06-11 00:15:00 84.0 53.4 65.2 84.0 85.9 7.6 11.0 8.7 150.2 149.4 0.00 0.0000000 82.7
2021-06-11 00:20:00 82.7 55.4 65.1 82.7 84.5 6.3 9.0 6.9 148.8 143.1 0.00 0.0000000 82.6
2021-06-11 00:25:00 82.1 57.0 65.4 82.1 84.1 6.7 8.3 7.1 149.8 146.5 0.00 0.0000000 82.5
2021-06-11 00:30:00 82.3 56.9 65.5 82.3 84.2 6.9 9.2 7.6 160.4 151.3 0.00 0.0000000 82.5
2021-06-11 00:35:00 81.6 57.5 65.1 81.6 83.5 7.2 7.6 6.7 148.7 153.2 0.00 0.0000000 82.5
2021-06-11 00:40:00 81.5 57.8 65.2 81.5 83.4 7.6 8.7 7.4 147.3 150.1 0.00 0.0000000 82.4
2021-06-11 00:45:00 81.2 58.4 65.2 81.2 83.1 5.6 7.6 6.5 163.1 151.3 0.00 0.0000000 82.3
2021-06-11 00:50:00 80.4 59.9 65.2 80.4 82.3 5.8 6.3 5.8 163.8 156.8 0.00 0.0000000 82.3
2021-06-11 00:55:00 79.8 60.7 65.0 79.8 79.8 4.6 6.7 5.3 146.9 155.8 0.00 0.0000000 82.3
2021-06-11 01:00:00 78.7 63.2 65.2 78.7 78.7 5.1 5.8 5.0 144.7 140.1 0.00 0.0000000 82.2
2021-06-11 01:05:00 78.5 63.8 65.2 78.5 78.5 5.3 5.5 4.9 146.7 143.6 0.00 0.0000000 82.2
2021-06-11 01:10:00 78.2 64.3 65.2 78.2 78.2 4.0 4.7 4.1 144.6 147.3 0.00 0.0000000 82.2
2021-06-11 01:15:00 77.9 64.5 65.0 77.9 77.9 3.0 4.0 3.5 141.3 142.6 0.00 0.0000000 82.1
2021-06-11 01:20:00 77.6 65.0 64.9 77.6 77.6 4.0 4.9 3.7 144.9 141.7 0.00 0.0000000 82.1
2021-06-11 01:25:00 77.3 66.1 65.1 77.3 77.3 4.9 5.3 4.5 140.7 145.3 0.00 0.0000000 82.1
2021-06-11 01:30:00 77.0 66.9 65.1 77.0 77.0 5.1 6.0 5.3 139.1 142.7 0.00 0.0000000 82.0
2021-06-11 01:35:00 76.9 67.7 65.4 76.9 76.9 4.7 6.0 5.3 140.9 144.1 0.00 0.0000000 82.0
2021-06-11 01:40:00 77.1 67.4 65.5 77.1 77.1 5.3 7.1 5.7 140.0 143.1 0.00 0.0000000 81.9
2021-06-11 01:45:00 77.1 67.7 65.6 77.1 77.1 5.5 6.7 5.5 134.2 140.0 0.00 0.0000000 81.9
2021-06-11 01:50:00 76.9 68.0 65.5 76.9 76.9 5.5 5.8 5.2 139.7 141.3 0.00 0.0000000 81.9
2021-06-11 01:55:00 76.9 68.2 65.6 76.9 76.9 4.4 5.8 4.7 135.6 138.9 0.00 0.0000000 81.8
2021-06-11 02:00:00 76.4 68.7 65.3 76.4 76.4 5.3 5.5 5.0 142.6 143.3 0.00 0.0000000 81.8
2021-06-11 02:05:00 76.0 70.0 65.5 76.0 76.0 4.9 5.8 5.2 124.0 140.8 0.00 0.0000000 81.8
2021-06-11 02:10:00 75.6 71.1 65.5 75.6 75.6 4.0 5.6 4.6 112.1 122.5 0.00 0.0000000 81.7
2021-06-11 02:15:00 74.6 71.4 64.8 74.6 74.6 4.0 4.6 4.1 117.0 113.9 0.00 0.0000000 81.6
2021-06-11 02:20:00 74.6 72.3 65.1 74.6 74.6 4.4 4.7 4.3 122.6 121.9 0.00 0.0000000 81.6
2021-06-11 02:25:00 74.3 73.6 65.3 74.3 74.3 4.6 4.6 3.9 132.1 127.9 0.00 0.0000000 81.6
2021-06-11 02:30:00 74.5 73.3 65.4 74.5 74.5 4.4 4.6 3.9 123.5 135.7 0.00 0.0000000 81.5
2021-06-11 02:35:00 74.5 72.5 65.1 74.5 74.5 3.8 4.0 3.6 130.1 131.5 0.00 0.0000000 81.5
2021-06-11 02:40:00 75.5 72.0 65.8 75.5 75.5 2.4 4.2 3.4 112.8 119.1 0.00 0.0000000 81.4
2021-06-11 02:45:00 75.7 70.0 65.2 75.7 75.7 4.2 4.4 3.6 96.5 100.6 0.00 0.0000000 81.4
2021-06-11 02:50:00 75.3 70.3 65.0 75.3 75.3 3.3 4.6 3.8 94.6 101.2 0.00 0.0000000 81.4
2021-06-11 02:55:00 74.2 72.1 64.7 74.2 74.2 3.1 3.7 3.2 134.1 118.1 0.00 0.0000000 81.3
2021-06-11 03:00:00 72.8 74.5 64.2 72.8 72.8 3.7 3.8 3.1 146.0 137.0 0.00 0.0000000 81.3
2021-06-11 03:05:00 72.2 76.3 64.3 72.2 72.2 3.5 3.7 3.2 141.3 140.3 0.00 0.0000000 81.2
2021-06-11 03:10:00 72.2 76.9 64.6 72.2 72.2 2.6 3.7 3.0 133.3 139.7 0.00 0.0000000 81.2
2021-06-11 03:15:00 72.3 77.4 64.8 72.3 72.3 3.7 3.8 3.5 134.2 139.0 0.00 0.0000000 81.2
2021-06-11 03:20:00 73.0 75.7 64.9 73.0 73.0 5.1 5.1 4.3 141.0 135.7 0.00 0.0000000 81.1
2021-06-11 03:25:00 72.4 76.4 64.6 72.4 72.4 4.2 5.1 3.7 135.9 136.9 0.00 0.0000000 81.0
2021-06-11 03:30:00 72.0 77.7 64.7 72.0 72.0 3.1 4.2 3.7 146.2 139.8 0.00 0.0000000 81.0
2021-06-11 03:35:00 72.1 77.1 64.5 72.1 72.1 2.4 3.3 2.8 163.9 149.1 0.00 0.0000000 81.0
2021-06-11 03:40:00 71.7 77.3 64.2 71.7 71.7 3.7 3.8 3.1 167.6 164.1 0.00 0.0000000 80.9
2021-06-11 03:45:00 71.5 77.4 64.1 71.5 71.5 3.5 3.8 3.5 166.8 166.8 0.00 0.0000000 80.9
2021-06-11 03:50:00 71.1 78.3 64.0 71.1 71.1 1.7 3.1 2.2 165.6 155.9 0.00 0.0000000 80.8
2021-06-11 03:55:00 71.4 78.8 64.4 71.4 71.4 0.0 1.5 0.7 130.1 159.8 0.00 0.0000000 80.7
2021-06-11 04:00:00 71.5 79.4 64.8 71.5 71.5 0.0 0.0 0.0 283.3 0.0 0.00 0.0000000 80.7
2021-06-11 04:05:00 71.4 79.3 64.7 71.4 71.4 0.0 0.8 0.1 202.3 306.0 0.00 0.0000000 80.7
2021-06-11 04:10:00 71.6 79.1 64.7 71.6 71.6 0.8 1.9 0.3 254.7 233.6 0.00 0.0000000 80.6
2021-06-11 04:15:00 71.1 76.7 63.4 71.1 71.1 1.5 1.7 1.2 278.1 253.1 0.00 0.0000000 80.5
2021-06-11 04:20:00 70.4 80.2 64.0 70.4 70.4 2.6 2.6 1.9 331.6 298.7 0.00 0.0000000 80.5
2021-06-11 04:25:00 70.5 79.9 64.0 70.5 70.5 2.1 2.8 2.4 340.0 330.8 0.00 0.0000000 80.5
2021-06-11 04:30:00 71.3 80.1 64.9 71.3 71.3 0.0 2.1 1.5 264.9 311.3 0.00 0.0000000 80.4
2021-06-11 04:35:00 70.7 79.2 64.0 70.7 70.7 0.0 1.3 0.7 242.5 255.5 0.00 0.0000000 80.3
2021-06-11 04:40:00 70.4 80.0 63.9 70.4 70.4 0.0 0.0 0.0 220.6 0.0 0.00 0.0000000 80.3
2021-06-11 04:45:00 70.7 81.9 64.9 70.7 70.7 0.0 0.0 0.0 224.7 0.0 0.00 0.0000000 80.3
2021-06-11 04:50:00 70.3 81.1 64.3 70.3 70.3 0.0 0.0 0.0 222.5 0.0 0.00 0.0000000 80.2
2021-06-11 04:55:00 70.2 81.4 64.3 70.2 70.2 0.0 0.0 0.0 155.1 0.0 0.00 0.0000000 80.2
2021-06-11 05:00:00 69.2 84.0 64.1 69.2 69.2 0.0 1.5 0.4 213.6 222.4 0.00 0.0000000 80.1
2021-06-11 05:05:00 68.2 83.7 63.1 68.2 68.2 2.4 2.4 1.2 254.0 252.4 0.00 0.0000000 80.0
2021-06-11 05:10:00 67.2 81.4 61.3 67.2 67.2 3.1 3.1 2.9 267.3 263.5 0.00 0.0000000 80.0
2021-06-11 05:15:00 66.6 82.0 60.9 66.6 66.6 2.6 3.3 3.0 260.4 258.1 0.00 0.0000000 79.9
2021-06-11 05:20:00 65.6 81.6 59.8 65.6 65.6 3.0 3.5 2.8 258.9 258.2 0.00 0.0000000 79.9
2021-06-11 05:25:00 65.1 81.4 59.3 65.1 65.1 2.6 3.3 2.9 254.6 256.7 0.00 0.0000000 79.8
2021-06-11 05:30:00 64.9 80.1 58.6 64.9 64.9 2.8 3.5 2.9 266.4 263.0 0.00 0.0000000 79.8
2021-06-11 05:35:00 64.3 80.1 58.0 64.3 64.3 3.5 3.5 3.1 281.8 271.9 0.00 0.0010000 79.7
2021-06-11 05:40:00 63.8 82.5 58.3 63.8 63.8 2.2 3.5 2.9 269.2 274.7 0.00 0.0010000 79.7
2021-06-11 05:45:00 63.7 82.2 58.2 63.7 63.7 3.0 3.0 2.2 281.2 271.0 0.00 0.0020000 79.6
2021-06-11 05:50:00 64.2 81.2 58.3 64.2 64.2 3.0 3.7 3.2 290.9 287.9 0.00 0.0040000 79.5
2021-06-11 05:55:00 64.4 80.7 58.3 64.4 64.4 2.6 3.1 2.8 285.8 281.6 0.00 0.0070000 79.5
2021-06-11 06:00:00 64.9 82.2 59.4 64.9 64.9 2.1 3.0 2.6 297.5 309.8 0.00 0.0110000 79.4
2021-06-11 06:05:00 64.2 79.8 57.8 64.2 64.2 3.3 3.5 3.0 258.7 261.2 0.00 0.0150000 79.4
2021-06-11 06:10:00 63.9 78.8 57.2 63.9 63.9 4.4 4.9 4.2 257.9 247.7 0.00 0.0190000 79.3
2021-06-11 06:15:00 63.7 78.8 57.0 63.7 63.7 3.3 4.0 3.1 286.9 272.7 0.00 0.0310000 79.3
2021-06-11 06:20:00 63.5 80.5 57.4 63.5 63.5 3.1 3.5 3.2 278.9 282.4 0.00 0.0440000 79.2
2021-06-11 06:25:00 64.4 78.8 57.7 64.4 64.4 2.8 3.1 2.7 284.5 275.3 0.00 0.0550000 79.1
2021-06-11 06:30:00 64.5 77.8 57.5 64.5 64.5 3.7 4.2 3.3 285.4 281.0 0.00 0.0680000 79.1
2021-06-11 06:35:00 65.3 77.6 58.2 65.3 65.3 3.0 4.2 3.2 292.4 272.9 0.00 0.0820000 79.1
2021-06-11 06:40:00 66.7 76.5 59.1 66.7 66.7 2.1 3.7 3.1 263.8 271.0 0.00 0.0970000 79.0
2021-06-11 06:45:00 67.5 74.5 59.1 67.5 67.5 2.8 3.1 2.6 275.4 269.5 0.00 0.1110000 78.9
2021-06-11 06:50:00 68.3 72.9 59.3 68.3 68.3 3.3 3.3 2.7 251.1 262.1 0.00 0.1250000 78.9
2021-06-11 06:55:00 69.3 71.5 59.7 69.3 69.3 3.0 3.5 2.9 289.3 265.3 0.00 0.1400000 78.9
2021-06-11 07:00:00 69.7 75.3 61.6 69.7 69.7 3.0 3.3 3.0 301.7 294.7 0.00 0.1540000 78.8
2021-06-11 07:05:00 70.8 74.9 62.4 70.8 70.8 2.8 3.3 3.0 344.4 321.7 0.00 0.1690000 78.7
2021-06-11 07:10:00 72.3 71.1 62.4 72.3 72.3 2.1 3.5 2.8 310.9 331.1 0.00 0.1830000 78.7
2021-06-11 07:15:00 73.2 68.8 62.3 73.2 73.2 2.1 2.2 1.8 265.9 283.2 0.00 0.2000000 78.7
2021-06-11 07:20:00 74.1 67.5 62.7 74.1 74.1 2.6 2.8 2.1 286.0 277.1 0.00 0.2140000 78.6
2021-06-11 07:25:00 74.8 66.5 62.9 74.8 74.8 2.2 2.4 2.1 277.5 284.9 0.00 0.2300000 78.6
2021-06-11 07:30:00 75.5 63.5 62.3 75.5 75.5 2.6 3.3 2.5 256.1 264.6 0.00 0.2470000 78.6
2021-06-11 07:35:00 76.8 62.4 63.0 76.8 76.8 1.9 2.6 2.1 342.3 323.0 0.00 0.2600000 78.5
2021-06-11 07:40:00 77.4 64.4 64.5 77.4 77.4 2.4 3.7 1.2 41.6 337.1 0.00 0.2770000 78.5
2021-06-11 07:45:00 78.1 62.5 64.2 78.1 78.1 3.5 3.7 2.2 15.6 28.0 0.00 0.2910000 78.5
2021-06-11 07:50:00 78.6 61.9 64.5 78.6 78.6 1.3 3.3 1.4 76.2 20.2 0.00 0.3100000 78.5
2021-06-11 07:55:00 79.5 61.7 65.2 79.5 79.5 0.0 2.1 1.3 12.3 52.2 0.00 0.3250000 78.4
2021-06-11 08:00:00 79.1 63.5 65.7 79.1 79.1 1.9 2.6 1.5 287.5 304.2 0.00 0.3410000 78.4
2021-06-11 08:05:00 79.2 63.6 65.8 79.2 79.2 1.2 2.2 1.5 314.4 306.9 0.00 0.3560000 78.4
2021-06-11 08:10:00 80.2 63.2 66.5 80.2 82.4 4.0 4.0 1.8 42.5 69.2 0.00 0.3700000 78.4
2021-06-11 08:15:00 80.0 63.4 66.5 80.0 82.2 1.7 4.6 2.7 63.7 73.5 0.00 0.3880000 78.4
2021-06-11 08:20:00 79.9 63.9 66.6 79.9 79.9 2.4 3.5 2.7 25.3 67.1 0.00 0.4040000 78.4
2021-06-11 08:25:00 80.3 62.0 66.1 80.3 82.4 1.2 2.8 1.8 39.1 27.3 0.00 0.4220000 78.3
2021-06-11 08:30:00 81.6 60.0 66.4 81.6 83.9 1.5 2.1 1.2 8.7 341.1 0.00 0.4380000 78.4
2021-06-11 08:35:00 82.6 57.4 66.1 82.6 84.8 1.2 2.1 0.9 63.4 31.1 0.00 0.4550000 78.3
2021-06-11 08:40:00 82.9 59.0 67.1 82.9 85.5 2.2 3.3 1.9 117.5 79.8 0.00 0.4720000 78.3
2021-06-11 08:45:00 82.0 59.7 66.6 82.0 84.3 2.2 3.5 2.7 113.4 130.0 0.00 0.4880000 78.3
2021-06-11 08:50:00 81.8 59.9 66.5 81.8 84.1 2.1 4.7 2.3 66.4 115.5 0.00 0.5060000 78.3
2021-06-11 08:55:00 82.9 58.7 66.9 82.9 85.4 0.0 2.2 1.0 311.6 105.1 0.00 0.5240000 78.3
2021-06-11 09:00:00 83.5 54.9 65.6 83.5 85.6 2.4 3.0 1.7 50.9 320.7 0.00 0.5420000 78.3
2021-06-11 09:05:00 84.0 54.3 65.7 84.0 86.0 1.2 4.2 2.1 119.3 59.4 0.00 0.5390000 78.4
2021-06-11 09:10:00 85.0 52.9 65.9 85.0 87.2 2.1 3.1 2.0 27.8 81.9 0.00 0.5700000 78.4
2021-06-11 09:15:00 85.2 51.9 65.5 85.2 87.2 4.0 5.5 2.4 45.9 99.3 0.00 0.5880000 78.4
2021-06-11 09:20:00 86.5 50.9 66.1 86.5 88.8 0.8 4.0 1.9 57.1 37.3 0.00 0.6000000 78.4
2021-06-11 09:25:00 86.8 48.9 65.2 86.8 88.7 3.0 5.3 2.4 68.5 68.4 0.00 0.6120000 78.4
2021-06-11 09:30:00 86.3 51.1 66.1 86.3 88.6 2.8 6.7 4.0 110.5 84.9 0.00 0.6160000 78.4
2021-06-11 09:35:00 87.5 42.8 62.1 87.5 88.0 2.8 4.7 3.5 343.2 41.8 0.00 0.6390000 78.5
2021-06-11 09:40:00 88.1 36.3 58.1 88.1 88.1 4.0 5.1 3.4 346.6 30.5 0.00 0.6540000 78.5
2021-06-11 09:45:00 88.8 39.3 60.9 88.8 88.8 3.5 6.2 3.5 16.3 55.2 0.00 0.6700000 78.5
2021-06-11 09:50:00 89.6 31.7 55.6 89.6 89.6 4.0 8.1 4.5 47.8 38.9 0.00 0.6860000 78.5
2021-06-11 09:55:00 90.3 31.2 55.7 90.3 90.3 3.7 9.2 5.4 49.1 21.5 0.00 0.7070000 78.6
2021-06-11 10:00:00 89.1 28.5 52.3 89.1 89.1 2.1 9.6 5.2 52.7 354.7 0.00 0.6880000 78.6
2021-06-11 10:05:00 90.7 28.3 53.4 90.7 90.7 5.3 7.4 4.6 345.2 355.4 0.00 0.7050000 78.6
2021-06-11 10:10:00 91.1 32.8 57.8 91.1 91.1 6.7 7.8 6.3 349.1 344.6 0.00 0.7410000 78.7
2021-06-11 10:15:00 92.7 19.7 45.3 92.7 92.7 5.3 9.4 7.1 0.2 8.7 0.00 0.7360000 78.7
2021-06-11 10:20:00 93.4 13.1 35.3 93.4 93.4 6.5 8.8 5.8 18.7 7.3 0.00 0.7450000 78.8
2021-06-11 10:25:00 93.4 11.9 33.0 93.4 93.4 9.9 9.9 7.2 4.4 13.9 0.00 0.7570000 78.8
2021-06-11 10:30:00 94.7 14.7 39.3 94.7 94.7 5.1 10.6 6.9 3.1 8.0 0.00 0.8000000 78.9
2021-06-11 10:35:00 94.4 12.9 35.8 94.4 94.4 6.7 10.6 7.1 328.0 5.2 0.00 0.8280000 78.9
2021-06-11 10:40:00 94.1 15.9 40.8 94.1 94.1 6.5 10.8 6.8 12.5 2.0 0.00 0.8390000 79.0
2021-06-11 10:45:00 95.6 18.2 45.6 95.6 95.6 8.1 11.0 6.6 43.4 20.6 0.00 0.6600000 79.0
2021-06-11 10:50:00 93.9 19.2 45.7 93.9 93.9 7.8 10.1 6.9 12.8 10.0 0.00 0.8000000 79.1
2021-06-11 10:55:00 94.9 16.7 42.8 94.9 94.9 9.0 9.7 6.6 336.6 9.6 0.00 0.8660000 79.1
2021-06-11 11:00:00 95.1 14.9 40.0 95.1 95.1 5.6 9.7 6.7 16.2 2.4 0.00 0.8590000 79.2
2021-06-11 11:05:00 95.5 12.7 36.1 95.5 95.5 7.1 9.2 6.7 25.2 0.7 0.00 0.8600000 79.2
2021-06-11 11:10:00 95.1 14.9 40.1 95.1 95.1 5.5 9.9 6.6 7.4 12.3 0.00 0.8730000 79.3
2021-06-11 11:15:00 99.3 13.7 41.1 99.3 99.3 8.3 11.5 7.2 32.4 359.1 0.00 0.8880000 79.4
2021-06-11 11:20:00 96.9 13.4 38.7 96.9 96.9 7.2 11.0 6.7 9.8 354.4 0.00 0.9090000 79.5
2021-06-11 11:25:00 96.2 15.1 41.3 96.2 96.2 4.4 8.5 5.4 1.7 25.3 0.00 0.8770000 79.6
2021-06-11 11:30:00 96.8 15.9 43.1 96.8 96.8 3.3 9.7 5.5 65.5 25.3 0.00 0.7860000 79.7
2021-06-11 11:35:00 97.7 9.7 31.1 97.7 97.7 4.7 12.1 5.2 338.4 37.6 0.00 0.6970000 79.8
2021-06-11 11:40:00 98.2 14.5 41.8 98.2 98.2 4.9 6.2 4.4 90.6 37.3 0.00 0.9030000 79.9
2021-06-11 11:45:00 98.8 12.8 38.9 98.8 98.8 3.1 8.5 5.4 18.8 25.3 0.00 0.9310000 80.0
2021-06-11 11:50:00 103.0 16.2 48.5 103.0 103.0 4.9 7.1 4.8 50.4 21.5 0.00 0.9450000 80.1
2021-06-11 11:55:00 98.6 9.9 32.5 98.6 98.6 8.3 9.0 6.3 337.2 1.2 0.00 0.7030000 80.3
2021-06-11 12:00:00 98.0 9.5 31.0 98.0 98.0 5.5 8.5 5.5 1.7 352.7 0.00 0.8150000 80.4
2021-06-11 12:05:00 98.9 5.7 19.2 98.9 98.9 6.0 9.0 5.9 23.5 8.7 0.00 0.9340000 80.6
2021-06-11 12:10:00 99.7 11.1 36.1 99.7 99.7 4.6 8.7 5.4 2.7 14.1 0.00 0.8150000 80.7
2021-06-11 12:15:00 100.7 9.2 32.1 100.7 100.7 7.2 8.3 6.0 23.0 18.0 0.00 0.9340000 80.9
2021-06-11 12:20:00 98.9 5.6 19.1 98.9 98.9 3.8 8.3 5.6 320.4 4.5 0.00 0.9360000 81.0
2021-06-11 12:25:00 97.5 13.2 38.8 97.5 97.5 5.6 7.6 4.9 9.3 345.0 0.00 0.9380000 81.2
2021-06-11 12:30:00 101.5 6.7 24.9 101.5 101.5 5.3 5.5 3.3 10.6 302.4 0.00 0.9430000 81.3
2021-06-11 12:35:00 103.5 12.5 42.0 103.5 103.5 3.1 5.5 3.4 92.9 40.7 0.00 0.8180000 81.4
2021-06-11 12:40:00 100.9 11.0 36.8 100.9 100.9 4.2 4.2 3.0 141.6 62.1 0.00 0.6720000 81.6
2021-06-11 12:45:00 101.2 5.9 21.9 101.2 101.2 3.3 6.0 4.2 108.5 121.0 0.00 0.9460000 81.8
2021-06-11 12:50:00 97.7 11.9 36.3 97.7 97.7 3.8 6.7 4.0 4.6 77.8 0.00 0.9390000 81.9
2021-06-11 12:55:00 99.0 13.0 39.6 99.0 99.0 3.3 6.7 3.9 327.0 19.9 0.00 0.9380000 82.1
2021-06-11 13:00:00 102.6 8.0 30.1 102.6 102.6 3.7 6.5 3.1 9.4 238.7 0.00 0.9370000 82.2
2021-06-11 13:05:00 101.8 7.5 28.0 101.8 101.8 5.5 8.0 4.5 158.3 116.8 0.00 0.9360000 82.4
2021-06-11 13:10:00 101.1 8.0 29.1 101.1 101.1 2.2 9.4 4.9 139.5 161.5 0.00 0.9350000 82.5
2021-06-11 13:15:00 101.2 7.7 28.1 101.2 101.2 5.1 8.1 4.0 203.1 160.3 0.00 0.9330000 82.7
2021-06-11 13:20:00 101.7 6.6 24.9 101.7 101.7 3.3 6.0 3.6 122.7 219.2 0.00 0.9340000 82.8
2021-06-11 13:25:00 105.0 12.8 43.7 105.0 105.0 4.2 6.5 3.7 267.1 195.5 0.00 0.9320000 83.0
2021-06-11 13:30:00 102.5 11.2 38.4 102.5 102.5 4.2 5.6 3.5 320.0 300.1 0.00 0.9370000 83.1
2021-06-11 13:35:00 102.5 12.1 40.5 102.5 102.5 2.6 5.6 4.1 310.9 289.2 0.00 0.9470000 83.3
2021-06-11 13:40:00 103.8 9.9 36.3 103.8 103.8 3.3 7.6 3.1 312.5 298.7 0.00 0.8650000 83.5
2021-06-11 13:45:00 103.5 7.5 29.1 103.5 103.5 2.1 4.0 2.9 243.1 311.6 0.00 0.9310000 83.7
2021-06-11 13:50:00 104.1 4.2 15.9 104.1 104.1 3.1 4.4 2.5 269.1 259.0 0.00 0.9220000 83.8
2021-06-11 13:55:00 106.3 12.6 44.5 106.3 106.3 3.3 6.5 3.5 144.8 250.9 0.00 0.9140000 84.0
2021-06-11 14:00:00 102.9 10.4 37.0 102.9 102.9 2.4 6.7 4.8 132.7 167.5 0.00 0.9120000 84.1
2021-06-11 14:05:00 102.4 8.9 32.7 102.4 102.4 8.3 10.8 4.0 201.1 201.6 0.00 0.9070000 84.3
2021-06-11 14:10:00 102.6 9.1 33.4 102.6 102.6 3.7 12.1 7.9 223.6 206.3 0.00 0.9030000 84.5
2021-06-11 14:15:00 104.6 10.8 39.1 104.6 104.6 5.6 11.9 6.6 153.6 192.6 0.00 0.9030000 84.6
2021-06-11 14:20:00 103.7 4.1 15.1 103.7 103.7 1.7 6.0 4.0 271.7 173.3 0.00 0.9040000 84.8
2021-06-11 14:25:00 103.8 10.0 36.6 103.8 103.8 4.7 9.7 4.8 245.4 187.6 0.00 0.9020000 84.9
2021-06-11 14:30:00 105.2 10.2 38.0 105.2 105.2 8.1 8.1 3.7 291.0 272.3 0.00 0.8930000 85.0
2021-06-11 14:35:00 102.3 12.0 40.1 102.3 102.3 4.2 8.7 3.6 165.9 269.1 0.00 0.8870000 85.2
2021-06-11 14:40:00 103.0 12.7 42.1 103.0 103.0 9.6 9.6 4.4 204.5 194.2 0.00 0.8840000 85.4
2021-06-11 14:45:00 104.1 7.8 30.6 104.1 104.1 6.7 11.7 8.0 222.4 210.4 0.00 0.8740000 85.5
2021-06-11 14:50:00 102.4 10.3 36.2 102.4 102.4 10.3 11.9 6.8 197.9 206.8 0.00 0.7680000 85.7
2021-06-11 14:55:00 104.5 9.3 35.1 104.5 104.5 3.5 9.9 5.9 211.9 212.2 0.00 0.7680000 85.8
2021-06-11 15:00:00 104.0 5.1 20.2 104.0 104.0 10.3 13.0 6.3 236.5 223.0 0.00 0.7650000 85.9
2021-06-11 15:05:00 102.3 9.3 33.5 102.3 102.3 8.3 11.5 8.6 232.5 215.3 0.00 0.8670000 86.0
2021-06-11 15:10:00 104.0 12.5 42.4 104.0 104.0 4.6 10.3 6.7 316.1 263.4 0.00 0.7460000 86.1
2021-06-11 15:15:00 105.6 5.9 24.9 105.6 105.6 9.0 9.0 5.6 253.5 268.6 0.00 0.7250000 86.3
2021-06-11 15:20:00 105.3 5.3 22.0 105.3 105.3 9.0 9.0 5.0 233.7 264.3 0.00 0.7230000 86.4
2021-06-11 15:25:00 104.1 6.9 27.6 104.1 104.1 7.8 13.7 8.4 187.2 195.2 0.00 0.7630000 86.5
2021-06-11 15:30:00 103.0 6.4 24.9 103.0 103.0 10.5 11.3 8.8 210.9 190.8 0.00 0.7320000 86.6
2021-06-11 15:35:00 104.5 12.1 41.9 104.5 104.5 4.4 10.5 5.8 230.2 163.8 0.00 0.7850000 86.7
2021-06-11 15:40:00 104.0 9.4 35.2 104.0 104.0 11.0 12.6 8.1 208.1 200.5 0.00 0.7050000 86.8
2021-06-11 15:45:00 106.0 11.7 42.3 106.0 106.0 3.0 9.4 3.3 159.6 192.5 0.00 0.7360000 86.9
2021-06-11 15:50:00 106.5 13.1 45.6 106.5 106.5 4.4 6.2 3.5 208.6 149.6 0.00 0.7000000 86.9
2021-06-11 15:55:00 105.5 5.9 24.9 105.5 105.5 5.1 8.1 6.1 164.4 155.4 0.00 0.7270000 87.0
2021-06-11 16:00:00 105.1 13.6 45.6 105.1 105.1 9.6 12.6 8.6 177.8 176.1 0.00 0.7320000 87.1
2021-06-11 16:05:00 105.5 4.8 20.0 105.5 105.5 6.5 10.6 4.9 199.2 164.7 0.00 0.6180000 87.2
2021-06-11 16:10:00 104.3 9.1 34.6 104.3 104.3 10.8 12.6 8.9 207.2 209.9 0.00 0.6050000 87.3
2021-06-11 16:15:00 103.8 9.4 34.9 103.8 103.8 3.8 12.1 7.0 204.4 214.4 0.00 0.6130000 87.3
2021-06-11 16:20:00 104.8 5.6 23.1 104.8 104.8 7.6 10.6 6.4 145.8 175.4 0.00 0.6090000 87.4
2021-06-11 16:25:00 105.2 8.6 33.9 105.2 105.2 6.2 9.4 6.6 131.5 136.6 0.00 0.6650000 87.4
2021-06-11 16:30:00 105.1 8.0 32.0 105.1 105.1 4.7 8.1 5.2 145.5 143.5 0.00 0.6570000 87.5
2021-06-11 16:35:00 104.4 10.1 37.2 104.4 104.4 4.2 12.2 7.2 233.8 177.0 0.00 0.6380000 87.5
2021-06-11 16:40:00 104.3 10.4 38.0 104.3 104.3 11.0 13.7 8.0 179.2 188.8 0.00 0.3750000 87.6
2021-06-11 16:45:00 103.1 8.3 31.5 103.1 103.1 9.7 11.9 9.6 215.0 181.7 0.00 0.4430000 87.7
2021-06-11 16:50:00 103.7 9.3 34.7 103.7 103.7 10.1 11.9 6.5 179.3 183.3 0.00 0.3580000 87.7
2021-06-11 16:55:00 103.2 8.1 30.9 103.2 103.2 9.9 12.4 9.4 149.5 168.5 0.00 0.2760000 87.7
2021-06-11 17:00:00 102.8 9.2 33.7 102.8 102.8 6.2 10.5 8.6 162.6 156.1 0.00 0.3530000 87.8
2021-06-11 17:05:00 104.0 9.5 35.5 104.0 104.0 7.8 9.2 6.8 121.5 129.2 0.00 0.4140000 87.8
2021-06-11 17:10:00 104.5 8.3 32.4 104.5 104.5 8.1 10.8 7.6 143.7 145.8 0.00 0.5650000 87.9
2021-06-11 17:15:00 104.9 10.0 37.3 104.9 104.9 10.6 14.0 10.7 175.0 149.2 0.00 0.5130000 87.9
2021-06-11 17:20:00 104.6 9.2 35.1 104.6 104.6 7.2 16.4 9.8 142.2 165.4 0.00 0.4730000 87.9
2021-06-11 17:25:00 104.8 8.3 32.6 104.8 104.8 8.1 12.8 8.6 118.9 133.5 0.00 0.4270000 87.9
2021-06-11 17:30:00 104.6 10.5 38.5 104.6 104.6 13.0 13.0 7.3 133.0 128.9 0.00 0.4380000 87.9
2021-06-11 17:35:00 104.0 10.1 36.8 104.0 104.0 9.9 14.4 8.3 138.3 174.5 0.00 0.1520000 88.0
2021-06-11 17:40:00 104.0 10.5 38.0 104.0 104.0 9.7 13.9 10.8 156.0 150.2 0.00 0.0840000 88.0
2021-06-11 17:45:00 104.0 11.0 39.1 104.0 104.0 7.1 10.3 7.4 149.7 155.1 0.00 0.0840000 88.0
2021-06-11 17:50:00 104.0 10.1 36.9 104.0 104.0 8.3 10.5 7.9 126.6 132.0 0.00 0.1080000 88.0
2021-06-11 17:55:00 104.6 10.8 39.2 104.6 104.6 6.5 10.5 8.0 149.8 133.8 0.00 0.3120000 88.0
2021-06-11 18:00:00 103.4 9.4 34.5 103.4 103.4 6.9 10.3 7.4 157.3 158.8 0.00 0.3490000 88.0
2021-06-11 18:05:00 103.8 10.4 37.6 103.8 103.8 7.6 11.7 8.0 146.7 144.1 0.00 0.3200000 88.0
2021-06-11 18:10:00 103.5 8.7 33.0 103.5 103.5 11.3 13.1 10.2 156.9 137.6 0.00 0.3390000 88.0
2021-06-11 18:15:00 104.1 10.5 38.0 104.1 104.1 7.8 12.8 9.4 144.6 152.3 0.00 0.3260000 88.0
2021-06-11 18:20:00 103.7 9.3 34.6 103.7 103.7 10.6 12.1 9.8 169.9 150.2 0.00 0.2640000 88.0
2021-06-11 18:25:00 103.5 9.4 34.6 103.5 103.5 10.8 14.4 9.6 163.8 161.0 0.00 0.2300000 88.0
2021-06-11 18:30:00 102.8 9.5 34.6 102.8 102.8 9.9 10.3 8.1 154.8 154.3 0.00 0.1460000 87.9
2021-06-11 18:35:00 102.5 9.8 35.0 102.5 102.5 7.2 10.8 9.1 148.7 156.0 0.00 0.1640000 87.9
2021-06-11 18:40:00 102.2 9.4 33.7 102.2 102.2 10.3 10.6 8.5 155.2 157.0 0.00 0.1300000 87.9
2021-06-11 18:45:00 101.8 11.1 37.6 101.8 101.8 7.4 11.0 8.2 135.4 146.1 0.00 0.1720000 87.9
2021-06-11 18:50:00 101.3 10.5 35.9 101.3 101.3 7.6 11.0 8.5 140.5 132.0 0.00 0.1730000 87.9
2021-06-11 18:55:00 101.2 9.9 34.4 101.2 101.2 7.8 8.3 6.6 143.6 137.1 0.00 0.1870000 87.9
2021-06-11 19:00:00 102.1 10.2 35.8 102.1 102.1 8.1 8.1 5.7 159.1 157.4 0.00 0.1740000 87.8
2021-06-11 19:05:00 101.9 10.3 35.9 101.9 101.9 5.6 8.3 6.9 174.4 184.4 0.00 0.1410000 87.8
2021-06-11 19:10:00 101.3 10.0 34.7 101.3 101.3 6.0 12.1 7.4 156.5 163.3 0.00 0.1140000 87.8
2021-06-11 19:15:00 102.3 10.2 35.9 102.3 102.3 9.0 9.0 6.0 161.2 170.2 0.00 0.1180000 87.7
2021-06-11 19:20:00 100.7 10.7 35.9 100.7 100.7 6.5 8.7 7.2 178.1 175.6 0.00 0.1030000 87.7
2021-06-11 19:25:00 100.2 10.6 35.3 100.2 100.2 4.0 6.5 4.7 208.2 198.8 0.00 0.0870000 87.7
2021-06-11 19:30:00 100.2 10.0 33.9 100.2 100.2 7.2 7.8 5.2 173.1 191.5 0.00 0.0700000 87.6
2021-06-11 19:35:00 100.1 10.9 35.9 100.1 100.1 5.1 7.6 6.3 159.3 159.5 0.00 0.0430000 87.6
2021-06-11 19:40:00 98.1 12.8 38.5 98.1 98.1 6.5 6.5 4.1 156.5 158.8 0.00 0.0400000 87.5
2021-06-11 19:45:00 98.7 11.4 35.9 98.7 98.7 6.2 9.0 6.6 169.0 169.0 0.00 0.0290000 87.5
2021-06-11 19:50:00 98.0 10.8 34.1 98.0 98.0 4.2 6.3 5.2 202.6 186.7 0.00 0.0200000 87.5
2021-06-11 19:55:00 98.4 11.3 35.6 98.4 98.4 7.2 7.4 4.9 199.6 195.7 0.00 0.0130000 87.4
2021-06-11 20:00:00 97.0 13.1 38.2 97.0 97.0 7.2 8.5 7.1 166.4 173.6 0.00 0.0090000 87.4
2021-06-11 20:05:00 97.6 10.9 34.1 97.6 97.6 5.5 7.6 6.7 150.1 163.7 0.00 0.0040000 87.4
2021-06-11 20:10:00 98.5 10.9 34.7 98.5 98.5 4.9 9.2 6.5 153.6 149.5 0.00 0.0020000 87.3
2021-06-11 20:15:00 97.1 11.6 35.1 97.1 97.1 4.6 6.0 4.8 191.9 177.7 0.00 0.0020000 87.2
2021-06-11 20:20:00 95.2 12.1 34.9 95.2 95.2 4.7 6.0 4.7 156.2 168.6 0.00 0.0010000 87.2
2021-06-11 20:25:00 95.2 12.0 34.7 95.2 95.2 5.3 6.3 5.3 171.5 166.1 0.00 0.0000000 87.1
2021-06-11 20:30:00 93.5 12.8 35.0 93.5 93.5 6.3 7.8 6.2 173.8 159.5 0.00 0.0000000 87.1
2021-06-11 20:35:00 93.9 12.6 34.8 93.9 93.9 3.0 7.1 4.9 225.4 194.4 0.00 0.0000000 87.0
2021-06-11 20:40:00 93.7 13.7 36.9 93.7 93.7 6.0 6.2 3.6 193.6 180.8 0.00 0.0000000 87.0
2021-06-11 20:45:00 94.5 12.0 34.0 94.5 94.5 5.1 7.1 6.0 184.2 188.5 0.00 0.0000000 86.9
2021-06-11 20:50:00 93.8 11.5 32.5 93.8 93.8 3.5 5.3 4.4 183.6 178.0 0.00 0.0000000 86.8
2021-06-11 20:55:00 93.9 11.3 32.1 93.9 93.9 4.4 4.6 3.7 193.8 178.6 0.00 0.0000000 86.7
2021-06-11 21:00:00 93.1 11.5 31.9 93.1 93.1 3.7 4.9 4.0 194.1 178.5 0.00 0.0000000 86.7
2021-06-11 21:05:00 93.5 11.4 32.0 93.5 93.5 4.4 4.4 3.5 203.9 201.4 0.00 0.0000000 86.6
2021-06-11 21:10:00 94.3 10.8 31.2 94.3 94.3 4.0 5.1 4.2 178.4 190.7 0.00 0.0000000 86.5
2021-06-11 21:15:00 95.4 10.5 31.4 95.4 95.4 4.4 6.3 4.5 189.1 188.6 0.00 0.0000000 86.5
2021-06-11 21:20:00 94.3 10.6 30.8 94.3 94.3 2.8 5.3 3.3 256.2 207.6 0.00 0.0000000 86.4
2021-06-11 21:25:00 91.8 13.1 34.1 91.8 91.8 1.5 5.5 3.3 228.0 253.3 0.00 0.0000000 86.3
2021-06-11 21:30:00 91.3 12.6 32.8 91.3 91.3 2.6 3.3 2.6 297.5 220.6 0.00 0.0000000 86.3
2021-06-11 21:35:00 90.7 11.4 29.9 90.7 90.7 2.6 3.3 1.8 222.3 238.3 0.00 0.0000000 86.2
2021-06-11 21:40:00 90.7 13.1 33.3 90.7 90.7 5.3 5.3 2.8 201.6 205.5 0.00 0.0000000 86.1
2021-06-11 21:45:00 91.3 14.6 36.5 91.3 91.3 3.3 5.6 4.4 171.8 193.0 0.00 0.0000000 86.0
2021-06-11 21:50:00 92.0 10.6 29.1 92.0 92.0 4.0 4.6 4.1 172.3 192.2 0.00 0.0000000 85.9
2021-06-11 21:55:00 91.5 12.9 33.6 91.5 91.5 2.4 4.2 3.6 211.9 208.1 0.00 0.0000000 85.9
2021-06-11 22:00:00 89.9 11.7 29.8 89.9 89.9 4.7 4.7 2.9 183.2 195.8 0.00 0.0000000 85.8
2021-06-11 22:05:00 91.0 13.9 34.9 91.0 91.0 4.6 5.8 4.8 290.5 202.7 0.00 0.0000000 85.7
2021-06-11 22:10:00 87.3 13.5 31.5 87.3 87.3 4.4 5.3 3.6 208.6 215.0 0.00 0.0000000 85.6
2021-06-11 22:15:00 87.4 13.8 32.0 87.4 87.4 4.6 6.7 4.6 237.2 238.1 0.00 0.0000000 85.5
2021-06-11 22:20:00 86.2 16.8 36.0 86.2 86.2 5.6 7.4 5.2 258.2 224.0 0.00 0.0000000 85.4
2021-06-11 22:25:00 83.7 17.3 34.8 83.7 83.7 5.8 5.8 3.6 258.3 256.8 0.00 0.0000000 85.3
2021-06-11 22:30:00 83.0 18.3 35.6 83.0 83.0 4.0 6.0 4.6 264.2 261.0 0.00 0.0000000 85.2
2021-06-11 22:35:00 82.6 18.5 35.5 82.6 82.6 4.4 4.9 4.4 283.3 274.3 0.00 0.0000000 85.2
2021-06-11 22:40:00 83.2 17.3 34.4 83.2 83.2 4.2 5.5 3.9 271.0 262.5 0.00 0.0000000 85.1
2021-06-11 22:45:00 83.0 16.9 33.5 83.0 83.0 4.6 5.6 4.9 319.2 295.3 0.00 0.0000000 85.0
2021-06-11 22:50:00 86.2 13.2 29.9 86.2 86.2 3.8 4.4 3.7 84.6 333.8 0.00 0.0000000 84.9
2021-06-11 22:55:00 87.7 19.1 40.5 87.7 87.7 7.4 15.6 8.8 72.7 87.0 0.00 0.0000000 84.8
2021-06-11 23:00:00 88.0 19.8 41.7 88.0 88.0 6.0 10.8 6.1 114.0 70.4 0.00 0.0000000 84.8
2021-06-11 23:05:00 86.9 21.2 42.5 86.9 86.9 6.2 9.4 5.4 58.3 58.1 0.00 0.0000000 84.7
2021-06-11 23:10:00 87.4 21.8 43.6 87.4 87.4 5.8 8.3 5.2 80.9 70.1 0.00 0.0000000 84.6
2021-06-11 23:15:00 87.9 21.5 43.8 87.9 87.9 4.9 7.4 4.4 12.5 39.5 0.00 0.0000000 84.5
2021-06-11 23:20:00 87.2 23.6 45.5 87.2 87.2 3.5 6.0 3.5 98.4 58.1 0.00 0.0000000 84.4
2021-06-11 23:25:00 86.5 24.7 46.2 86.5 86.5 4.9 8.3 5.2 102.7 88.6 0.00 0.0000000 84.4
2021-06-11 23:30:00 85.1 26.6 47.0 85.1 85.1 8.7 9.7 7.8 83.4 92.4 0.00 0.0000000 84.3
2021-06-11 23:35:00 85.3 26.1 46.6 85.3 85.3 9.7 13.3 9.5 82.1 92.0 0.00 0.0000000 84.2
2021-06-11 23:40:00 85.3 26.5 47.1 85.3 85.3 13.0 14.6 11.6 89.7 92.7 0.00 0.0000000 84.1
2021-06-11 23:45:00 84.7 28.6 48.5 84.7 84.7 12.8 13.1 11.2 86.3 102.1 0.00 0.0000000 84.1
2021-06-11 23:50:00 84.0 28.3 47.7 84.0 84.0 9.9 13.7 11.1 97.8 106.4 0.00 0.0000000 84.0
2021-06-11 23:55:00 83.9 28.8 48.1 83.9 83.9 9.4 11.9 10.1 96.9 104.6 0.00 0.0000000 83.9
2021-06-12 00:00:00 83.6 28.9 47.9 83.6 83.6 11.5 13.3 11.0 97.7 100.3 0.00 0.0000000 83.9

Data is courtesy of the NM Climate Center. DO NOT USE IN LEGAL PROCEEDINGS.